createdAt,value
2023-02-05T00:02:05.152Z,33.55
2023-02-05T00:07:09.849Z,33.06
2023-02-05T00:12:14.812Z,32.87
2023-02-05T00:17:19.940Z,32.52
2023-02-05T00:22:24.120Z,31.88
2023-02-05T00:27:29.775Z,32.15
2023-02-05T00:32:36.161Z,32.27
2023-02-05T00:37:40.820Z,31.92
2023-02-05T00:42:45.713Z,32.46
2023-02-05T00:47:51.508Z,31.80
2023-02-05T00:52:56.272Z,31.63
2023-02-05T00:58:02.447Z,31.26
2023-02-05T01:03:08.597Z,31.46
2023-02-05T01:08:15.577Z,31.51
2023-02-05T01:13:21.035Z,31.23
2023-02-05T01:18:29.607Z,31.72
2023-02-05T01:23:34.642Z,31.57
2023-02-05T01:28:39.461Z,32.05
2023-02-05T01:33:44.231Z,31.11
2023-02-05T01:38:48.825Z,31.31
2023-02-05T01:44:15.432Z,31.46
2023-02-05T01:49:28.278Z,31.06
2023-02-05T01:54:37.471Z,31.41
2023-02-05T01:59:47.044Z,30.81
2023-02-05T02:05:03.517Z,31.35
2023-02-05T02:10:10.540Z,31.08
2023-02-05T02:15:20.851Z,31.01
2023-02-05T02:20:35.029Z,31.07
2023-02-05T02:25:45.744Z,30.79
2023-02-05T02:31:13.523Z,30.94
2023-02-05T02:36:38.517Z,30.97
2023-02-05T02:41:46.340Z,30.99
2023-02-05T02:46:59.611Z,30.63
2023-02-05T02:52:10.160Z,30.60
2023-02-05T02:57:19.370Z,30.71
2023-02-05T03:02:28.696Z,30.59
2023-02-05T03:07:50.766Z,30.40
2023-02-05T03:12:57.903Z,30.68
2023-02-05T03:18:03.853Z,30.25
2023-02-05T03:23:08.821Z,30.60
2023-02-05T03:28:15.550Z,30.21
2023-02-05T03:34:04.431Z,30.58
2023-02-05T03:39:49.189Z,30.36
2023-02-05T03:45:30.785Z,30.90
2023-02-05T03:50:43.466Z,30.65
2023-02-05T03:55:57.441Z,30.46
2023-02-05T04:01:02.842Z,30.43
2023-02-05T04:06:09.062Z,30.97
2023-02-05T04:11:15.374Z,30.51
2023-02-05T04:16:22.762Z,30.42
2023-02-05T04:21:28.321Z,30.99
2023-02-05T04:26:33.378Z,30.81
2023-02-05T04:31:42.318Z,30.51
2023-02-05T04:36:49.255Z,30.55
2023-02-05T04:41:54.572Z,30.47
2023-02-05T04:46:59.598Z,30.49
2023-02-05T04:52:04.684Z,30.68
2023-02-05T04:57:10.846Z,30.69
2023-02-05T05:02:16.381Z,30.62
2023-02-05T05:07:21.988Z,30.33
2023-02-05T05:12:27.634Z,30.83
2023-02-05T05:17:33.348Z,30.80
2023-02-05T05:22:38.936Z,30.61
2023-02-05T05:27:45.203Z,30.40
2023-02-05T05:32:50.928Z,30.13
2023-02-05T05:37:59.571Z,30.31
2023-02-05T05:43:24.923Z,30.47
2023-02-05T05:48:30.816Z,30.55
2023-02-05T05:53:36.548Z,30.95
2023-02-05T05:58:42.462Z,30.77
2023-02-05T06:03:48.071Z,30.56
2023-02-05T06:08:53.743Z,30.71
2023-02-05T06:13:59.366Z,30.63
2023-02-05T06:19:04.639Z,30.60
2023-02-05T06:24:09.838Z,30.82
2023-02-05T06:29:15.423Z,30.64
2023-02-05T06:34:20.852Z,30.76
2023-02-05T06:39:26.324Z,30.70
2023-02-05T06:44:32.165Z,30.64
2023-02-05T06:49:38.923Z,30.71
2023-02-05T06:54:46.153Z,30.48
2023-02-05T06:59:51.045Z,30.55
2023-02-05T07:04:56.529Z,30.11
2023-02-05T07:10:02.859Z,30.68
2023-02-05T07:15:10.909Z,30.77
2023-02-05T07:20:18.272Z,30.51
2023-02-05T07:25:24.339Z,30.32
2023-02-05T07:30:30.043Z,30.57
2023-02-05T07:35:38.816Z,30.34
2023-02-05T07:40:45.153Z,30.46
2023-02-05T07:45:57.740Z,30.45
2023-02-05T07:51:03.871Z,30.51
2023-02-05T07:56:09.657Z,30.44
2023-02-05T08:01:15.146Z,30.34
2023-02-05T08:06:20.269Z,30.18
2023-02-05T08:11:26.121Z,30.28
2023-02-05T08:16:31.539Z,29.96
2023-02-05T08:21:36.971Z,30.20
2023-02-05T08:26:42.635Z,30.12
2023-02-05T08:31:47.983Z,30.15
2023-02-05T08:36:53.659Z,30.13
2023-02-05T08:41:58.902Z,30.07
2023-02-05T08:47:04.408Z,30.10
2023-02-05T08:52:10.086Z,30.55
2023-02-05T08:57:18.127Z,30.26
2023-02-05T09:02:26.128Z,30.08
2023-02-05T09:07:33.720Z,30.18
2023-02-05T09:12:39.006Z,30.16
2023-02-05T09:17:44.549Z,29.88
2023-02-05T09:22:50.042Z,30.28
2023-02-05T09:27:55.496Z,30.55
2023-02-05T09:33:00.751Z,30.37
2023-02-05T09:38:07.110Z,30.06
2023-02-05T09:43:36.295Z,30.88
2023-02-05T09:49:22.440Z,30.04
2023-02-05T09:54:35.941Z,30.55
2023-02-05T09:59:47.196Z,30.39
2023-02-05T10:04:56.575Z,30.91
2023-02-05T10:10:17.483Z,30.61
2023-02-05T10:15:47.805Z,30.95
2023-02-05T10:21:29.959Z,31.27
2023-02-05T10:26:53.024Z,31.82
2023-02-05T10:32:21.787Z,31.40
2023-02-05T10:37:57.764Z,31.71
2023-02-05T10:43:05.010Z,31.11
2023-02-05T10:48:34.388Z,31.95
2023-02-05T10:53:40.662Z,31.86
2023-02-05T10:58:58.811Z,31.54
2023-02-05T11:04:09.924Z,32.89
2023-02-05T11:09:26.725Z,32.64
2023-02-05T11:14:36.292Z,32.73
2023-02-05T11:19:41.665Z,33.32
2023-02-05T11:24:46.460Z,31.72
2023-02-05T11:29:50.533Z,32.09
2023-02-05T11:35:09.495Z,32.41
2023-02-05T11:40:28.138Z,32.20
2023-02-05T11:45:35.641Z,32.67
2023-02-05T11:50:47.629Z,32.20
2023-02-05T11:56:02.410Z,33.80
2023-02-05T12:01:27.317Z,32.61
2023-02-05T12:07:09.411Z,34.10
2023-02-05T12:12:48.036Z,34.19
2023-02-05T12:17:59.856Z,34.23
2023-02-05T12:23:07.628Z,34.51
2023-02-05T12:28:38.032Z,33.45
2023-02-05T12:34:18.393Z,33.36
2023-02-05T12:39:45.772Z,33.25
2023-02-05T12:45:27.186Z,33.35
2023-02-05T12:51:06.249Z,33.76
2023-02-05T12:56:32.530Z,34.06
2023-02-05T13:01:50.421Z,35.49
2023-02-05T13:07:13.217Z,34.05
2023-02-05T13:12:25.050Z,34.99
2023-02-05T13:17:41.653Z,35.10
2023-02-05T13:23:15.367Z,34.50
2023-02-05T13:28:45.232Z,36.23
2023-02-05T13:33:52.696Z,38.74
2023-02-05T13:39:17.589Z,35.60
2023-02-05T13:44:48.879Z,34.04
2023-02-05T13:50:27.965Z,34.51
2023-02-05T13:56:19.036Z,34.75
2023-02-05T14:01:27.833Z,34.44
2023-02-05T14:06:39.652Z,34.24
2023-02-05T14:12:03.549Z,34.46
2023-02-05T14:17:34.089Z,33.86
2023-02-05T14:22:45.125Z,34.81
2023-02-05T14:27:53.578Z,35.56
2023-02-05T14:33:05.021Z,35.63
2023-02-05T14:38:34.564Z,34.47
2023-02-05T14:43:42.383Z,34.95
2023-02-05T14:48:50.671Z,36.21
2023-02-05T14:54:12.867Z,35.84
2023-02-05T14:59:30.850Z,36.00
2023-02-05T15:04:51.973Z,35.90
2023-02-05T15:10:02.957Z,35.42
2023-02-05T15:15:33.982Z,33.85
2023-02-05T15:20:42.982Z,35.07
2023-02-05T15:25:59.962Z,34.91
2023-02-05T15:31:13.964Z,34.63
2023-02-05T15:36:31.261Z,35.89
2023-02-05T15:41:37.673Z,35.98
2023-02-05T15:46:43.086Z,36.48
2023-02-05T15:51:49.639Z,36.26
2023-02-05T15:56:56.054Z,35.91
2023-02-05T16:02:36.494Z,35.16
2023-02-05T16:07:46.319Z,36.46
2023-02-05T16:13:19.608Z,36.65
2023-02-05T16:18:29.061Z,36.35
2023-02-05T16:23:42.120Z,36.35
2023-02-05T16:28:55.972Z,36.24
2023-02-05T16:34:15.114Z,36.58
2023-02-05T16:39:26.021Z,36.01
2023-02-05T16:44:43.084Z,36.06
2023-02-05T16:49:50.328Z,37.88
2023-02-05T16:54:55.493Z,36.81
2023-02-05T17:00:20.328Z,37.02
2023-02-05T17:05:32.966Z,38.49
2023-02-05T17:10:55.587Z,38.23
2023-02-05T17:16:22.028Z,35.45
2023-02-05T17:21:38.381Z,36.25
2023-02-05T17:26:44.613Z,36.06
2023-02-05T17:31:49.429Z,37.84
2023-02-05T17:36:54.142Z,37.89
2023-02-05T17:42:11.338Z,38.29
2023-02-05T17:47:16.478Z,37.92
2023-02-05T17:52:21.431Z,37.61
2023-02-05T17:57:26.224Z,38.47
2023-02-05T18:02:30.921Z,38.32
2023-02-05T18:07:44.341Z,37.36
2023-02-05T18:12:49.259Z,37.10
2023-02-05T18:17:54.461Z,38.04
2023-02-05T18:22:59.083Z,37.34
2023-02-05T18:28:03.909Z,38.21
2023-02-05T18:33:08.632Z,37.33
2023-02-05T18:38:13.253Z,38.31
2023-02-05T18:43:18.190Z,36.91
2023-02-05T18:48:24.204Z,37.43
2023-02-05T18:53:30.372Z,38.91
2023-02-05T18:58:36.034Z,37.83
2023-02-05T19:03:44.602Z,37.88
2023-02-05T19:08:50.195Z,38.23
2023-02-05T19:14:04.206Z,37.67
2023-02-05T19:19:09.819Z,37.38
2023-02-05T19:24:15.179Z,39.39
2023-02-05T19:29:22.074Z,37.53
2023-02-05T19:34:29.100Z,38.50
2023-02-05T19:39:33.900Z,38.83
2023-02-05T19:44:38.662Z,38.03
2023-02-05T19:49:43.324Z,42.35
2023-02-05T19:54:48.201Z,43.52
2023-02-05T19:59:52.981Z,39.18
2023-02-05T20:04:57.760Z,38.76
2023-02-05T20:10:02.498Z,38.35
2023-02-05T20:15:07.810Z,38.59
2023-02-05T20:20:24.979Z,38.28
2023-02-05T20:25:37.526Z,38.11
2023-02-05T20:31:01.796Z,37.14
2023-02-05T20:36:14.604Z,37.91
2023-02-05T20:41:20.636Z,37.50
2023-02-05T20:46:26.700Z,37.96
2023-02-05T20:51:32.564Z,37.28
2023-02-05T20:56:38.296Z,37.22
2023-02-05T21:01:43.593Z,37.69
2023-02-05T21:06:49.589Z,38.23
2023-02-05T21:11:56.672Z,38.21
2023-02-05T21:17:02.053Z,39.32
2023-02-05T21:22:06.940Z,38.64
2023-02-05T21:27:12.292Z,39.04
2023-02-05T21:32:18.640Z,38.25
2023-02-05T21:37:23.904Z,38.74
2023-02-05T21:42:28.765Z,37.87
2023-02-05T21:47:33.990Z,38.10
2023-02-05T21:52:39.047Z,37.53
2023-02-05T21:57:44.938Z,37.60
2023-02-05T22:02:50.055Z,38.31
2023-02-05T22:07:55.188Z,42.43
2023-02-05T22:13:00.600Z,39.31
2023-02-05T22:18:06.025Z,40.06
2023-02-05T22:23:11.101Z,38.62
2023-02-05T22:28:17.347Z,39.05
2023-02-05T22:33:22.622Z,38.62
2023-02-05T22:38:28.961Z,39.70
2023-02-05T22:43:35.109Z,38.71
2023-02-05T22:48:42.441Z,38.73
2023-02-05T22:53:50.159Z,39.35
2023-02-05T22:58:56.010Z,39.01
2023-02-05T23:04:03.115Z,39.00
2023-02-05T23:09:10.089Z,41.80
2023-02-05T23:14:17.104Z,39.99
2023-02-05T23:19:23.774Z,40.50
2023-02-05T23:24:30.706Z,40.28
2023-02-05T23:29:35.930Z,40.19
2023-02-05T23:34:41.123Z,38.84
2023-02-05T23:39:46.317Z,40.84
2023-02-05T23:44:51.560Z,39.86
2023-02-05T23:49:56.642Z,40.39
2023-02-05T23:55:01.934Z,40.77
